sensor_id;sensor_type;location;lat;lon;timestamp;P1;durP1;ratioP1;P2;durP2;ratioP2
261;SDS011;114;48.260;10.988;2023-02-24T00:01:34;11.50;;;9.10;;
261;SDS011;114;48.260;10.988;2023-02-24T00:04:03;12.63;;;10.27;;
261;SDS011;114;48.260;10.988;2023-02-24T00:06:34;19.60;;;10.93;;
261;SDS011;114;48.260;10.988;2023-02-24T00:09:03;14.83;;;10.70;;
261;SDS011;114;48.260;10.988;2023-02-24T00:11:32;15.07;;;10.33;;
261;SDS011;114;48.260;10.988;2023-02-24T00:13:58;16.20;;;10.03;;
261;SDS011;114;48.260;10.988;2023-02-24T00:16:24;11.90;;;9.43;;
261;SDS011;114;48.260;10.988;2023-02-24T00:18:51;12.87;;;10.50;;
261;SDS011;114;48.260;10.988;2023-02-24T00:21:17;12.77;;;9.10;;
261;SDS011;114;48.260;10.988;2023-02-24T00:23:44;15.60;;;9.87;;
261;SDS011;114;48.260;10.988;2023-02-24T00:26:11;14.90;;;9.23;;
261;SDS011;114;48.260;10.988;2023-02-24T00:28:38;15.70;;;11.13;;
261;SDS011;114;48.260;10.988;2023-02-24T00:31:08;14.80;;;9.23;;
261;SDS011;114;48.260;10.988;2023-02-24T00:33:43;12.57;;;9.53;;
261;SDS011;114;48.260;10.988;2023-02-24T00:36:10;16.73;;;9.50;;
261;SDS011;114;48.260;10.988;2023-02-24T00:38:50;11.27;;;8.77;;
261;SDS011;114;48.260;10.988;2023-02-24T00:41:20;16.23;;;9.57;;
261;SDS011;114;48.260;10.988;2023-02-24T00:43:48;14.20;;;10.07;;
261;SDS011;114;48.260;10.988;2023-02-24T00:46:14;16.10;;;10.23;;
261;SDS011;114;48.260;10.988;2023-02-24T00:48:45;12.63;;;8.70;;
261;SDS011;114;48.260;10.988;2023-02-24T00:51:17;13.50;;;9.00;;
261;SDS011;114;48.260;10.988;2023-02-24T00:53:50;14.13;;;9.60;;
261;SDS011;114;48.260;10.988;2023-02-24T00:56:21;14.43;;;9.73;;
261;SDS011;114;48.260;10.988;2023-02-24T00:58:48;19.97;;;9.23;;
261;SDS011;114;48.260;10.988;2023-02-24T01:01:14;11.37;;;9.27;;
261;SDS011;114;48.260;10.988;2023-02-24T01:03:42;14.57;;;9.40;;
261;SDS011;114;48.260;10.988;2023-02-24T01:06:10;11.40;;;8.53;;
261;SDS011;114;48.260;10.988;2023-02-24T01:08:37;16.53;;;9.77;;
261;SDS011;114;48.260;10.988;2023-02-24T01:11:04;13.23;;;8.70;;
261;SDS011;114;48.260;10.988;2023-02-24T01:13:48;10.47;;;9.20;;
261;SDS011;114;48.260;10.988;2023-02-24T01:16:14;12.13;;;8.50;;
261;SDS011;114;48.260;10.988;2023-02-24T01:18:43;20.30;;;8.63;;
261;SDS011;114;48.260;10.988;2023-02-24T01:21:12;14.47;;;9.77;;
261;SDS011;114;48.260;10.988;2023-02-24T01:23:39;11.73;;;9.10;;
261;SDS011;114;48.260;10.988;2023-02-24T01:26:06;13.30;;;8.63;;
261;SDS011;114;48.260;10.988;2023-02-24T01:28:32;15.80;;;9.00;;
261;SDS011;114;48.260;10.988;2023-02-24T01:31:01;13.23;;;8.10;;
261;SDS011;114;48.260;10.988;2023-02-24T01:33:29;16.50;;;8.40;;
261;SDS011;114;48.260;10.988;2023-02-24T01:36:06;13.13;;;7.80;;
261;SDS011;114;48.260;10.988;2023-02-24T01:38:37;13.60;;;8.03;;
261;SDS011;114;48.260;10.988;2023-02-24T01:41:06;14.00;;;6.97;;
261;SDS011;114;48.260;10.988;2023-02-24T01:43:50;10.20;;;7.30;;
261;SDS011;114;48.260;10.988;2023-02-24T01:46:27;10.67;;;7.30;;
261;SDS011;114;48.260;10.988;2023-02-24T01:48:58;9.50;;;7.47;;
261;SDS011;114;48.260;10.988;2023-02-24T01:51:30;11.07;;;8.40;;
261;SDS011;114;48.260;10.988;2023-02-24T01:53:59;10.07;;;7.57;;
261;SDS011;114;48.260;10.988;2023-02-24T01:56:26;15.23;;;7.77;;
261;SDS011;114;48.260;10.988;2023-02-24T01:58:55;11.30;;;7.20;;
261;SDS011;114;48.260;10.988;2023-02-24T02:01:22;14.30;;;7.30;;
261;SDS011;114;48.260;10.988;2023-02-24T02:03:48;9.43;;;7.73;;
261;SDS011;114;48.260;10.988;2023-02-24T02:06:15;9.33;;;6.23;;
261;SDS011;114;48.260;10.988;2023-02-24T02:08:43;10.57;;;7.37;;
261;SDS011;114;48.260;10.988;2023-02-24T02:11:11;7.93;;;6.43;;
261;SDS011;114;48.260;10.988;2023-02-24T02:13:40;12.13;;;7.10;;
261;SDS011;114;48.260;10.988;2023-02-24T02:16:12;11.07;;;6.80;;
261;SDS011;114;48.260;10.988;2023-02-24T02:47:14;12.43;;;7.20;;
261;SDS011;114;48.260;10.988;2023-02-24T02:50:18;11.90;;;6.70;;
261;SDS011;114;48.260;10.988;2023-02-24T02:52:56;18.47;;;6.43;;
261;SDS011;114;48.260;10.988;2023-02-24T02:55:51;8.67;;;5.63;;
261;SDS011;114;48.260;10.988;2023-02-24T02:58:24;13.07;;;6.00;;
261;SDS011;114;48.260;10.988;2023-02-24T03:00:55;8.53;;;6.13;;
261;SDS011;114;48.260;10.988;2023-02-24T03:03:34;13.30;;;5.50;;
261;SDS011;114;48.260;10.988;2023-02-24T03:06:04;12.60;;;7.00;;
261;SDS011;114;48.260;10.988;2023-02-24T03:08:34;8.60;;;6.23;;
261;SDS011;114;48.260;10.988;2023-02-24T03:11:05;7.43;;;5.80;;
261;SDS011;114;48.260;10.988;2023-02-24T03:13:36;8.30;;;5.97;;
261;SDS011;114;48.260;10.988;2023-02-24T03:16:05;14.10;;;6.57;;
261;SDS011;114;48.260;10.988;2023-02-24T03:18:36;15.43;;;6.47;;
261;SDS011;114;48.260;10.988;2023-02-24T03:21:12;9.17;;;5.90;;
261;SDS011;114;48.260;10.988;2023-02-24T03:23:48;9.23;;;5.43;;
261;SDS011;114;48.260;10.988;2023-02-24T03:28:52;9.93;;;6.37;;
261;SDS011;114;48.260;10.988;2023-02-24T03:34:37;7.03;;;5.33;;
261;SDS011;114;48.260;10.988;2023-02-24T03:37:07;10.70;;;5.60;;
261;SDS011;114;48.260;10.988;2023-02-24T03:39:33;6.57;;;5.77;;
261;SDS011;114;48.260;10.988;2023-02-24T03:42:00;12.87;;;6.33;;
261;SDS011;114;48.260;10.988;2023-02-24T03:44:34;8.20;;;5.67;;
261;SDS011;114;48.260;10.988;2023-02-24T03:47:00;11.10;;;5.50;;
261;SDS011;114;48.260;10.988;2023-02-24T03:49:26;12.10;;;6.07;;
261;SDS011;114;48.260;10.988;2023-02-24T03:58:08;5.70;;;5.10;;
261;SDS011;114;48.260;10.988;2023-02-24T04:00:58;6.33;;;5.40;;
261;SDS011;114;48.260;10.988;2023-02-24T04:08:31;10.43;;;5.20;;
261;SDS011;114;48.260;10.988;2023-02-24T04:11:16;7.83;;;5.13;;
261;SDS011;114;48.260;10.988;2023-02-24T04:13:52;11.97;;;6.33;;
261;SDS011;114;48.260;10.988;2023-02-24T04:19:12;9.23;;;5.90;;
261;SDS011;114;48.260;10.988;2023-02-24T04:21:42;6.90;;;5.57;;
261;SDS011;114;48.260;10.988;2023-02-24T04:24:12;9.00;;;5.50;;
261;SDS011;114;48.260;10.988;2023-02-24T04:26:42;19.10;;;5.73;;
261;SDS011;114;48.260;10.988;2023-02-24T04:29:10;13.70;;;6.90;;
261;SDS011;114;48.260;10.988;2023-02-24T04:32:04;12.53;;;5.83;;
261;SDS011;114;48.260;10.988;2023-02-24T04:34:31;8.53;;;5.97;;
261;SDS011;114;48.260;10.988;2023-02-24T04:36:57;11.17;;;5.83;;
261;SDS011;114;48.260;10.988;2023-02-24T04:39:26;5.70;;;5.20;;
261;SDS011;114;48.260;10.988;2023-02-24T04:41:53;7.93;;;5.70;;
261;SDS011;114;48.260;10.988;2023-02-24T04:44:22;9.17;;;6.23;;
261;SDS011;114;48.260;10.988;2023-02-24T04:46:48;12.57;;;5.63;;
261;SDS011;114;48.260;10.988;2023-02-24T04:49:15;6.80;;;5.70;;
261;SDS011;114;48.260;10.988;2023-02-24T04:51:42;8.60;;;5.53;;
261;SDS011;114;48.260;10.988;2023-02-24T04:54:13;7.80;;;5.30;;
261;SDS011;114;48.260;10.988;2023-02-24T04:56:50;12.73;;;6.17;;
261;SDS011;114;48.260;10.988;2023-02-24T04:59:17;14.33;;;6.13;;
261;SDS011;114;48.260;10.988;2023-02-24T05:01:44;14.30;;;6.10;;
261;SDS011;114;48.260;10.988;2023-02-24T05:04:12;14.13;;;5.63;;
261;SDS011;114;48.260;10.988;2023-02-24T05:06:41;12.73;;;5.90;;
261;SDS011;114;48.260;10.988;2023-02-24T05:09:08;13.30;;;6.07;;
261;SDS011;114;48.260;10.988;2023-02-24T05:11:41;5.90;;;5.30;;
261;SDS011;114;48.260;10.988;2023-02-24T05:14:13;6.80;;;4.90;;
261;SDS011;114;48.260;10.988;2023-02-24T05:16:44;12.40;;;6.07;;
261;SDS011;114;48.260;10.988;2023-02-24T05:19:13;9.27;;;5.97;;
261;SDS011;114;48.260;10.988;2023-02-24T05:21:59;10.20;;;6.70;;
261;SDS011;114;48.260;10.988;2023-02-24T05:24:27;16.47;;;6.03;;
261;SDS011;114;48.260;10.988;2023-02-24T05:26:55;9.23;;;5.57;;
261;SDS011;114;48.260;10.988;2023-02-24T05:29:26;15.80;;;7.37;;
261;SDS011;114;48.260;10.988;2023-02-24T05:31:54;9.07;;;5.60;;
261;SDS011;114;48.260;10.988;2023-02-24T05:34:27;15.00;;;7.70;;
261;SDS011;114;48.260;10.988;2023-02-24T05:36:55;13.67;;;7.03;;
261;SDS011;114;48.260;10.988;2023-02-24T05:39:23;16.73;;;6.90;;
261;SDS011;114;48.260;10.988;2023-02-24T05:41:51;12.33;;;6.10;;
261;SDS011;114;48.260;10.988;2023-02-24T05:44:20;8.37;;;5.20;;
261;SDS011;114;48.260;10.988;2023-02-24T05:46:47;11.07;;;5.23;;
261;SDS011;114;48.260;10.988;2023-02-24T05:51:44;11.00;;;5.00;;
261;SDS011;114;48.260;10.988;2023-02-24T05:54:19;6.20;;;4.43;;
261;SDS011;114;48.260;10.988;2023-02-24T05:56:47;11.23;;;7.43;;
261;SDS011;114;48.260;10.988;2023-02-24T05:59:13;9.87;;;5.47;;
261;SDS011;114;48.260;10.988;2023-02-24T06:01:45;8.57;;;4.90;;
261;SDS011;114;48.260;10.988;2023-02-24T06:04:13;7.00;;;4.83;;
261;SDS011;114;48.260;10.988;2023-02-24T06:06:46;9.13;;;5.93;;
261;SDS011;114;48.260;10.988;2023-02-24T06:09:17;14.33;;;6.40;;
261;SDS011;114;48.260;10.988;2023-02-24T06:11:43;9.73;;;5.50;;
261;SDS011;114;48.260;10.988;2023-02-24T06:14:10;9.47;;;6.20;;
261;SDS011;114;48.260;10.988;2023-02-24T06:16:38;9.67;;;6.43;;
261;SDS011;114;48.260;10.988;2023-02-24T06:19:05;14.70;;;6.17;;
261;SDS011;114;48.260;10.988;2023-02-24T06:21:33;10.43;;;6.00;;
261;SDS011;114;48.260;10.988;2023-02-24T06:24:00;10.77;;;7.20;;
261;SDS011;114;48.260;10.988;2023-02-24T06:26:26;22.87;;;7.50;;
261;SDS011;114;48.260;10.988;2023-02-24T06:28:57;8.47;;;6.03;;
261;SDS011;114;48.260;10.988;2023-02-24T06:31:23;17.63;;;5.97;;
261;SDS011;114;48.260;10.988;2023-02-24T06:33:50;9.47;;;6.07;;
261;SDS011;114;48.260;10.988;2023-02-24T06:36:17;10.53;;;6.13;;
261;SDS011;114;48.260;10.988;2023-02-24T06:38:44;9.93;;;5.97;;
261;SDS011;114;48.260;10.988;2023-02-24T06:41:10;12.83;;;5.50;;
261;SDS011;114;48.260;10.988;2023-02-24T06:43:40;13.27;;;5.47;;
261;SDS011;114;48.260;10.988;2023-02-24T06:46:11;6.93;;;5.13;;
261;SDS011;114;48.260;10.988;2023-02-24T06:48:38;27.17;;;5.70;;
261;SDS011;114;48.260;10.988;2023-02-24T06:53:39;7.60;;;5.67;;
261;SDS011;114;48.260;10.988;2023-02-24T06:56:13;12.23;;;5.20;;
261;SDS011;114;48.260;10.988;2023-02-24T06:58:44;13.40;;;5.80;;
261;SDS011;114;48.260;10.988;2023-02-24T07:01:16;7.73;;;5.73;;
261;SDS011;114;48.260;10.988;2023-02-24T07:03:43;14.60;;;6.90;;
261;SDS011;114;48.260;10.988;2023-02-24T07:06:39;5.03;;;4.60;;
261;SDS011;114;48.260;10.988;2023-02-24T07:09:08;8.30;;;4.90;;
261;SDS011;114;48.260;10.988;2023-02-24T07:11:36;7.80;;;5.00;;
261;SDS011;114;48.260;10.988;2023-02-24T07:14:05;6.40;;;4.67;;
261;SDS011;114;48.260;10.988;2023-02-24T07:16:32;11.57;;;5.10;;
261;SDS011;114;48.260;10.988;2023-02-24T07:19:00;7.47;;;4.60;;
261;SDS011;114;48.260;10.988;2023-02-24T07:21:29;8.10;;;5.40;;
261;SDS011;114;48.260;10.988;2023-02-24T07:24:03;8.23;;;4.80;;
261;SDS011;114;48.260;10.988;2023-02-24T07:26:33;13.83;;;5.40;;
261;SDS011;114;48.260;10.988;2023-02-24T07:28:59;10.00;;;6.50;;
261;SDS011;114;48.260;10.988;2023-02-24T07:31:28;14.03;;;5.30;;
261;SDS011;114;48.260;10.988;2023-02-24T07:33:58;8.20;;;5.53;;
261;SDS011;114;48.260;10.988;2023-02-24T07:36:26;15.07;;;7.30;;
261;SDS011;114;48.260;10.988;2023-02-24T07:39:03;12.03;;;8.30;;
261;SDS011;114;48.260;10.988;2023-02-24T07:41:32;16.00;;;9.30;;
261;SDS011;114;48.260;10.988;2023-02-24T07:43:58;26.63;;;9.30;;
261;SDS011;114;48.260;10.988;2023-02-24T07:46:27;18.87;;;9.17;;
261;SDS011;114;48.260;10.988;2023-02-24T07:48:54;19.40;;;11.00;;
261;SDS011;114;48.260;10.988;2023-02-24T07:51:24;19.23;;;10.33;;
261;SDS011;114;48.260;10.988;2023-02-24T07:53:53;23.13;;;10.27;;
261;SDS011;114;48.260;10.988;2023-02-24T07:56:24;20.90;;;10.97;;
261;SDS011;114;48.260;10.988;2023-02-24T07:59:01;19.47;;;11.00;;
261;SDS011;114;48.260;10.988;2023-02-24T08:01:32;21.97;;;10.90;;
261;SDS011;114;48.260;10.988;2023-02-24T08:04:03;32.87;;;10.60;;
261;SDS011;114;48.260;10.988;2023-02-24T08:06:36;18.47;;;10.57;;
261;SDS011;114;48.260;10.988;2023-02-24T08:09:11;18.70;;;10.87;;
261;SDS011;114;48.260;10.988;2023-02-24T08:11:43;19.70;;;10.00;;
261;SDS011;114;48.260;10.988;2023-02-24T08:14:16;17.07;;;10.10;;
261;SDS011;114;48.260;10.988;2023-02-24T08:16:48;17.73;;;10.50;;
261;SDS011;114;48.260;10.988;2023-02-24T08:19:23;18.83;;;10.40;;
261;SDS011;114;48.260;10.988;2023-02-24T08:21:56;20.67;;;10.90;;
261;SDS011;114;48.260;10.988;2023-02-24T08:24:30;17.10;;;10.57;;
261;SDS011;114;48.260;10.988;2023-02-24T08:26:59;13.47;;;10.17;;
261;SDS011;114;48.260;10.988;2023-02-24T08:29:32;25.93;;;10.77;;
261;SDS011;114;48.260;10.988;2023-02-24T08:32:05;20.07;;;10.47;;
261;SDS011;114;48.260;10.988;2023-02-24T08:34:35;19.83;;;11.17;;
261;SDS011;114;48.260;10.988;2023-02-24T08:37:01;20.73;;;11.50;;
261;SDS011;114;48.260;10.988;2023-02-24T08:39:27;22.03;;;12.20;;
261;SDS011;114;48.260;10.988;2023-02-24T08:42:00;16.07;;;11.23;;
261;SDS011;114;48.260;10.988;2023-02-24T08:44:27;23.27;;;13.07;;
261;SDS011;114;48.260;10.988;2023-02-24T08:46:53;34.73;;;14.67;;
261;SDS011;114;48.260;10.988;2023-02-24T08:49:20;23.67;;;13.43;;
261;SDS011;114;48.260;10.988;2023-02-24T08:51:49;29.83;;;13.70;;
261;SDS011;114;48.260;10.988;2023-02-24T08:54:21;21.37;;;13.40;;
261;SDS011;114;48.260;10.988;2023-02-24T08:56:51;18.73;;;11.57;;
261;SDS011;114;48.260;10.988;2023-02-24T08:59:32;19.67;;;13.63;;
261;SDS011;114;48.260;10.988;2023-02-24T09:02:13;22.37;;;12.93;;
261;SDS011;114;48.260;10.988;2023-02-24T09:04:53;17.70;;;12.20;;
261;SDS011;114;48.260;10.988;2023-02-24T09:07:28;23.40;;;13.00;;
261;SDS011;114;48.260;10.988;2023-02-24T09:10:02;20.70;;;12.50;;
261;SDS011;114;48.260;10.988;2023-02-24T09:12:30;20.13;;;12.27;;
261;SDS011;114;48.260;10.988;2023-02-24T09:15:00;18.30;;;13.00;;
261;SDS011;114;48.260;10.988;2023-02-24T09:17:28;29.07;;;12.97;;
261;SDS011;114;48.260;10.988;2023-02-24T09:20:05;22.63;;;12.80;;
261;SDS011;114;48.260;10.988;2023-02-24T09:22:52;19.33;;;13.13;;
261;SDS011;114;48.260;10.988;2023-02-24T09:25:31;18.93;;;12.40;;
261;SDS011;114;48.260;10.988;2023-02-24T09:28:17;18.40;;;11.93;;
261;SDS011;114;48.260;10.988;2023-02-24T09:33:27;23.70;;;12.90;;
261;SDS011;114;48.260;10.988;2023-02-24T09:36:04;32.13;;;13.30;;
261;SDS011;114;48.260;10.988;2023-02-24T09:38:43;40.47;;;14.03;;
261;SDS011;114;48.260;10.988;2023-02-24T09:41:38;25.03;;;12.70;;
261;SDS011;114;48.260;10.988;2023-02-24T09:44:48;28.93;;;13.77;;
261;SDS011;114;48.260;10.988;2023-02-24T09:47:18;24.53;;;14.37;;
261;SDS011;114;48.260;10.988;2023-02-24T09:52:45;23.43;;;13.33;;
261;SDS011;114;48.260;10.988;2023-02-24T09:55:34;31.83;;;13.00;;
261;SDS011;114;48.260;10.988;2023-02-24T09:58:26;19.37;;;12.37;;
261;SDS011;114;48.260;10.988;2023-02-24T10:01:36;21.13;;;12.90;;
261;SDS011;114;48.260;10.988;2023-02-24T10:06:54;22.57;;;13.30;;
261;SDS011;114;48.260;10.988;2023-02-24T10:09:37;23.07;;;13.67;;
261;SDS011;114;48.260;10.988;2023-02-24T10:12:15;22.07;;;13.80;;
261;SDS011;114;48.260;10.988;2023-02-24T10:17:46;22.33;;;13.73;;
261;SDS011;114;48.260;10.988;2023-02-24T10:20:25;29.57;;;13.60;;
261;SDS011;114;48.260;10.988;2023-02-24T10:30:37;22.20;;;14.23;;
261;SDS011;114;48.260;10.988;2023-02-24T10:33:19;32.17;;;14.50;;
261;SDS011;114;48.260;10.988;2023-02-24T10:36:03;23.87;;;13.90;;
261;SDS011;114;48.260;10.988;2023-02-24T10:38:33;17.50;;;13.33;;
261;SDS011;114;48.260;10.988;2023-02-24T10:40:59;25.27;;;14.00;;
261;SDS011;114;48.260;10.988;2023-02-24T10:43:30;20.77;;;14.50;;
261;SDS011;114;48.260;10.988;2023-02-24T10:46:07;30.93;;;14.03;;
261;SDS011;114;48.260;10.988;2023-02-24T10:49:02;22.40;;;13.47;;
261;SDS011;114;48.260;10.988;2023-02-24T10:51:37;20.13;;;12.93;;
261;SDS011;114;48.260;10.988;2023-02-24T10:57:06;30.30;;;14.67;;
261;SDS011;114;48.260;10.988;2023-02-24T10:59:52;23.20;;;13.73;;
261;SDS011;114;48.260;10.988;2023-02-24T11:02:45;22.17;;;13.20;;
261;SDS011;114;48.260;10.988;2023-02-24T11:05:39;25.23;;;12.97;;
261;SDS011;114;48.260;10.988;2023-02-24T11:08:41;25.90;;;13.77;;
261;SDS011;114;48.260;10.988;2023-02-24T11:11:32;17.83;;;12.67;;
261;SDS011;114;48.260;10.988;2023-02-24T11:14:18;21.20;;;14.00;;
261;SDS011;114;48.260;10.988;2023-02-24T11:17:03;22.23;;;13.77;;
261;SDS011;114;48.260;10.988;2023-02-24T11:19:43;19.43;;;14.03;;
261;SDS011;114;48.260;10.988;2023-02-24T11:22:16;25.07;;;12.07;;
261;SDS011;114;48.260;10.988;2023-02-24T11:24:46;15.83;;;12.50;;
261;SDS011;114;48.260;10.988;2023-02-24T11:27:15;18.07;;;12.43;;
261;SDS011;114;48.260;10.988;2023-02-24T11:40:54;19.80;;;12.67;;
261;SDS011;114;48.260;10.988;2023-02-24T11:43:42;26.70;;;12.20;;
261;SDS011;114;48.260;10.988;2023-02-24T11:46:14;18.77;;;11.20;;
261;SDS011;114;48.260;10.988;2023-02-24T11:48:49;20.30;;;11.83;;
261;SDS011;114;48.260;10.988;2023-02-24T11:51:29;24.63;;;12.67;;
261;SDS011;114;48.260;10.988;2023-02-24T12:07:28;21.00;;;13.97;;
261;SDS011;114;48.260;10.988;2023-02-24T12:15:51;22.87;;;15.93;;
261;SDS011;114;48.260;10.988;2023-02-24T12:18:33;27.87;;;18.10;;
261;SDS011;114;48.260;10.988;2023-02-24T12:21:14;23.73;;;15.10;;
261;SDS011;114;48.260;10.988;2023-02-24T12:23:54;41.00;;;17.00;;
261;SDS011;114;48.260;10.988;2023-02-24T12:32:00;72.33;;;38.47;;
261;SDS011;114;48.260;10.988;2023-02-24T12:34:53;58.80;;;35.97;;
261;SDS011;114;48.260;10.988;2023-02-24T12:45:46;32.27;;;16.67;;
261;SDS011;114;48.260;10.988;2023-02-24T12:54:05;26.40;;;17.30;;
261;SDS011;114;48.260;10.988;2023-02-24T12:56:48;30.20;;;18.37;;
261;SDS011;114;48.260;10.988;2023-02-24T12:59:20;25.37;;;15.47;;
261;SDS011;114;48.260;10.988;2023-02-24T13:15:33;20.10;;;13.43;;
261;SDS011;114;48.260;10.988;2023-02-24T13:17:59;29.00;;;14.47;;
261;SDS011;114;48.260;10.988;2023-02-24T13:22:51;23.17;;;15.80;;
261;SDS011;114;48.260;10.988;2023-02-24T13:25:18;19.63;;;13.97;;
261;SDS011;114;48.260;10.988;2023-02-24T13:27:56;20.13;;;15.40;;
261;SDS011;114;48.260;10.988;2023-02-24T13:35:41;33.93;;;15.00;;
261;SDS011;114;48.260;10.988;2023-02-24T13:38:09;34.70;;;15.80;;
261;SDS011;114;48.260;10.988;2023-02-24T13:40:53;31.30;;;15.27;;
261;SDS011;114;48.260;10.988;2023-02-24T13:43:31;22.20;;;14.80;;
261;SDS011;114;48.260;10.988;2023-02-24T13:46:01;27.43;;;14.57;;
261;SDS011;114;48.260;10.988;2023-02-24T13:48:45;25.23;;;14.20;;
261;SDS011;114;48.260;10.988;2023-02-24T13:51:43;21.00;;;14.27;;
261;SDS011;114;48.260;10.988;2023-02-24T13:57:27;23.33;;;12.87;;
261;SDS011;114;48.260;10.988;2023-02-24T14:00:49;21.70;;;14.30;;
261;SDS011;114;48.260;10.988;2023-02-24T14:03:19;26.70;;;14.90;;
261;SDS011;114;48.260;10.988;2023-02-24T14:05:48;26.20;;;15.00;;
261;SDS011;114;48.260;10.988;2023-02-24T14:08:32;31.20;;;17.80;;
261;SDS011;114;48.260;10.988;2023-02-24T14:11:05;31.37;;;16.93;;
261;SDS011;114;48.260;10.988;2023-02-24T14:13:34;33.70;;;16.80;;
261;SDS011;114;48.260;10.988;2023-02-24T14:16:04;29.57;;;17.90;;
261;SDS011;114;48.260;10.988;2023-02-24T14:18:32;31.70;;;17.93;;
261;SDS011;114;48.260;10.988;2023-02-24T14:20:58;32.03;;;19.03;;
261;SDS011;114;48.260;10.988;2023-02-24T14:23:25;32.90;;;18.80;;
261;SDS011;114;48.260;10.988;2023-02-24T14:26:03;31.07;;;16.97;;
261;SDS011;114;48.260;10.988;2023-02-24T14:28:32;36.37;;;18.80;;
261;SDS011;114;48.260;10.988;2023-02-24T14:31:10;26.53;;;16.40;;
261;SDS011;114;48.260;10.988;2023-02-24T14:33:39;28.97;;;16.43;;
261;SDS011;114;48.260;10.988;2023-02-24T14:36:16;31.00;;;17.30;;
261;SDS011;114;48.260;10.988;2023-02-24T14:38:58;32.83;;;17.50;;
261;SDS011;114;48.260;10.988;2023-02-24T14:41:44;29.70;;;14.70;;
261;SDS011;114;48.260;10.988;2023-02-24T14:44:25;22.67;;;15.63;;
261;SDS011;114;48.260;10.988;2023-02-24T14:46:53;29.23;;;15.63;;
261;SDS011;114;48.260;10.988;2023-02-24T14:49:24;26.43;;;17.20;;
261;SDS011;114;48.260;10.988;2023-02-24T14:51:53;26.23;;;16.47;;
261;SDS011;114;48.260;10.988;2023-02-24T14:54:52;24.53;;;15.87;;
261;SDS011;114;48.260;10.988;2023-02-24T14:57:26;28.10;;;15.40;;
261;SDS011;114;48.260;10.988;2023-02-24T15:00:18;26.53;;;14.70;;
261;SDS011;114;48.260;10.988;2023-02-24T15:02:52;25.67;;;14.70;;
261;SDS011;114;48.260;10.988;2023-02-24T15:05:29;35.43;;;17.77;;
261;SDS011;114;48.260;10.988;2023-02-24T15:07:55;36.80;;;17.73;;
261;SDS011;114;48.260;10.988;2023-02-24T15:10:23;26.07;;;15.63;;
261;SDS011;114;48.260;10.988;2023-02-24T15:12:53;28.57;;;17.07;;
261;SDS011;114;48.260;10.988;2023-02-24T15:15:46;46.53;;;20.50;;
261;SDS011;114;48.260;10.988;2023-02-24T15:18:18;37.20;;;21.03;;
261;SDS011;114;48.260;10.988;2023-02-24T15:21:01;31.47;;;16.20;;
261;SDS011;114;48.260;10.988;2023-02-24T15:23:31;29.70;;;14.53;;
261;SDS011;114;48.260;10.988;2023-02-24T15:25:59;34.67;;;16.63;;
261;SDS011;114;48.260;10.988;2023-02-24T15:28:27;28.60;;;18.10;;
261;SDS011;114;48.260;10.988;2023-02-24T15:33:40;35.00;;;17.83;;
261;SDS011;114;48.260;10.988;2023-02-24T15:36:09;40.83;;;19.40;;
261;SDS011;114;48.260;10.988;2023-02-24T15:38:40;28.57;;;17.47;;
261;SDS011;114;48.260;10.988;2023-02-24T15:41:07;28.87;;;14.63;;
261;SDS011;114;48.260;10.988;2023-02-24T15:46:18;31.40;;;14.40;;
261;SDS011;114;48.260;10.988;2023-02-24T15:48:45;28.87;;;15.33;;
261;SDS011;114;48.260;10.988;2023-02-24T15:51:21;21.07;;;13.53;;
261;SDS011;114;48.260;10.988;2023-02-24T15:53:59;32.63;;;17.33;;
261;SDS011;114;48.260;10.988;2023-02-24T15:56:27;34.40;;;15.37;;
261;SDS011;114;48.260;10.988;2023-02-24T15:58:56;31.60;;;15.50;;
261;SDS011;114;48.260;10.988;2023-02-24T16:01:24;25.53;;;14.43;;
261;SDS011;114;48.260;10.988;2023-02-24T16:03:50;30.80;;;13.17;;
261;SDS011;114;48.260;10.988;2023-02-24T16:06:17;24.27;;;12.87;;
261;SDS011;114;48.260;10.988;2023-02-24T16:08:45;32.63;;;13.63;;
261;SDS011;114;48.260;10.988;2023-02-24T16:11:12;28.03;;;13.07;;
261;SDS011;114;48.260;10.988;2023-02-24T16:13:42;30.00;;;14.80;;
261;SDS011;114;48.260;10.988;2023-02-24T16:16:15;31.93;;;16.00;;
261;SDS011;114;48.260;10.988;2023-02-24T16:18:40;39.10;;;15.63;;
261;SDS011;114;48.260;10.988;2023-02-24T16:21:06;25.97;;;15.67;;
261;SDS011;114;48.260;10.988;2023-02-24T16:23:32;26.27;;;15.83;;
261;SDS011;114;48.260;10.988;2023-02-24T16:26:03;30.70;;;15.43;;
261;SDS011;114;48.260;10.988;2023-02-24T16:28:29;27.70;;;15.40;;
261;SDS011;114;48.260;10.988;2023-02-24T16:30:57;34.20;;;16.77;;
261;SDS011;114;48.260;10.988;2023-02-24T16:33:23;27.60;;;14.50;;
261;SDS011;114;48.260;10.988;2023-02-24T16:35:49;25.77;;;15.10;;
261;SDS011;114;48.260;10.988;2023-02-24T16:38:18;30.67;;;16.03;;
261;SDS011;114;48.260;10.988;2023-02-24T16:40:46;33.27;;;16.50;;
261;SDS011;114;48.260;10.988;2023-02-24T16:43:14;27.43;;;15.43;;
261;SDS011;114;48.260;10.988;2023-02-24T16:45:40;25.13;;;13.60;;
261;SDS011;114;48.260;10.988;2023-02-24T16:48:28;25.90;;;13.30;;
261;SDS011;114;48.260;10.988;2023-02-24T16:50:58;32.10;;;14.37;;
261;SDS011;114;48.260;10.988;2023-02-24T16:53:25;26.07;;;12.83;;
261;SDS011;114;48.260;10.988;2023-02-24T16:55:51;29.83;;;12.53;;
261;SDS011;114;48.260;10.988;2023-02-24T16:58:17;28.37;;;14.77;;
261;SDS011;114;48.260;10.988;2023-02-24T17:00:45;28.80;;;14.23;;
261;SDS011;114;48.260;10.988;2023-02-24T17:03:18;28.53;;;13.00;;
261;SDS011;114;48.260;10.988;2023-02-24T17:05:47;24.90;;;12.77;;
261;SDS011;114;48.260;10.988;2023-02-24T17:08:13;22.37;;;14.47;;
261;SDS011;114;48.260;10.988;2023-02-24T17:10:39;30.63;;;15.07;;
261;SDS011;114;48.260;10.988;2023-02-24T17:13:11;23.77;;;14.33;;
261;SDS011;114;48.260;10.988;2023-02-24T17:15:39;30.43;;;15.73;;
261;SDS011;114;48.260;10.988;2023-02-24T17:18:05;27.03;;;16.47;;
261;SDS011;114;48.260;10.988;2023-02-24T17:20:32;34.43;;;16.87;;
261;SDS011;114;48.260;10.988;2023-02-24T17:22:59;29.47;;;17.93;;
261;SDS011;114;48.260;10.988;2023-02-24T17:25:25;34.73;;;18.07;;
261;SDS011;114;48.260;10.988;2023-02-24T17:27:53;32.47;;;16.27;;
261;SDS011;114;48.260;10.988;2023-02-24T17:30:23;32.07;;;15.47;;
261;SDS011;114;48.260;10.988;2023-02-24T17:32:52;30.27;;;14.80;;
261;SDS011;114;48.260;10.988;2023-02-24T17:35:19;39.87;;;16.20;;
261;SDS011;114;48.260;10.988;2023-02-24T17:37:44;29.83;;;16.00;;
261;SDS011;114;48.260;10.988;2023-02-24T17:40:10;32.30;;;15.47;;
261;SDS011;114;48.260;10.988;2023-02-24T17:42:37;48.87;;;14.87;;
261;SDS011;114;48.260;10.988;2023-02-24T17:45:03;36.83;;;13.57;;
261;SDS011;114;48.260;10.988;2023-02-24T17:47:30;35.47;;;14.97;;
261;SDS011;114;48.260;10.988;2023-02-24T17:49:56;34.80;;;15.27;;
261;SDS011;114;48.260;10.988;2023-02-24T17:52:22;21.83;;;13.53;;
261;SDS011;114;48.260;10.988;2023-02-24T17:54:48;33.33;;;15.53;;
261;SDS011;114;48.260;10.988;2023-02-24T17:57:14;36.97;;;13.70;;
261;SDS011;114;48.260;10.988;2023-02-24T17:59:43;31.70;;;11.97;;
261;SDS011;114;48.260;10.988;2023-02-24T18:02:12;26.40;;;11.67;;
261;SDS011;114;48.260;10.988;2023-02-24T18:04:40;20.10;;;10.47;;
261;SDS011;114;48.260;10.988;2023-02-24T18:07:06;27.10;;;10.60;;
261;SDS011;114;48.260;10.988;2023-02-24T18:09:33;25.30;;;13.20;;
261;SDS011;114;48.260;10.988;2023-02-24T18:11:59;27.03;;;11.60;;
261;SDS011;114;48.260;10.988;2023-02-24T18:14:24;24.83;;;9.60;;
261;SDS011;114;48.260;10.988;2023-02-24T18:16:50;42.03;;;10.63;;